sensor_id;sensor_type;location;lat;lon;timestamp;temperature;humidity
13229;DHT22;6680;53.220;10.402;2022-12-07T00:01:22;3.60;99.90
13229;DHT22;6680;53.220;10.402;2022-12-07T00:03:51;3.60;99.90
13229;DHT22;6680;53.220;10.402;2022-12-07T00:06:18;3.60;99.90
13229;DHT22;6680;53.220;10.402;2022-12-07T00:08:46;3.60;99.90
13229;DHT22;6680;53.220;10.402;2022-12-07T00:11:15;3.60;99.90
13229;DHT22;6680;53.220;10.402;2022-12-07T00:13:44;3.60;99.90
13229;DHT22;6680;53.220;10.402;2022-12-07T00:16:12;3.70;99.90
13229;DHT22;6680;53.220;10.402;2022-12-07T00:18:40;3.70;99.90
13229;DHT22;6680;53.220;10.402;2022-12-07T00:21:09;3.70;99.90
13229;DHT22;6680;53.220;10.402;2022-12-07T00:23:37;3.60;99.90
13229;DHT22;6680;53.220;10.402;2022-12-07T00:26:05;3.70;99.90
13229;DHT22;6680;53.220;10.402;2022-12-07T00:28:32;3.70;99.90
13229;DHT22;6680;53.220;10.402;2022-12-07T00:31:02;3.80;99.90
13229;DHT22;6680;53.220;10.402;2022-12-07T00:33:29;3.80;99.90
13229;DHT22;6680;53.220;10.402;2022-12-07T00:35:56;3.90;99.90
13229;DHT22;6680;53.220;10.402;2022-12-07T00:38:23;3.90;99.90
13229;DHT22;6680;53.220;10.402;2022-12-07T00:40:55;3.90;99.90
13229;DHT22;6680;53.220;10.402;2022-12-07T00:43:22;3.90;99.90
13229;DHT22;6680;53.220;10.402;2022-12-07T00:45:48;4.00;99.90
13229;DHT22;6680;53.220;10.402;2022-12-07T00:48:17;4.00;99.90
13229;DHT22;6680;53.220;10.402;2022-12-07T00:50:43;4.00;99.90
13229;DHT22;6680;53.220;10.402;2022-12-07T00:53:10;4.00;99.90
13229;DHT22;6680;53.220;10.402;2022-12-07T00:55:37;4.00;99.90
13229;DHT22;6680;53.220;10.402;2022-12-07T00:58:04;4.20;99.90
13229;DHT22;6680;53.220;10.402;2022-12-07T01:00:32;4.00;99.90
13229;DHT22;6680;53.220;10.402;2022-12-07T01:03:00;3.90;99.90
13229;DHT22;6680;53.220;10.402;2022-12-07T01:05:28;3.90;99.90
13229;DHT22;6680;53.220;10.402;2022-12-07T01:10:22;3.90;99.90
13229;DHT22;6680;53.220;10.402;2022-12-07T01:12:49;3.90;99.90
13229;DHT22;6680;53.220;10.402;2022-12-07T01:15:15;3.80;99.90
13229;DHT22;6680;53.220;10.402;2022-12-07T01:17:42;3.80;99.90
13229;DHT22;6680;53.220;10.402;2022-12-07T01:20:10;3.90;99.90
13229;DHT22;6680;53.220;10.402;2022-12-07T01:22:38;3.90;99.90
13229;DHT22;6680;53.220;10.402;2022-12-07T01:25:06;3.90;99.90
13229;DHT22;6680;53.220;10.402;2022-12-07T01:27:33;3.90;99.90
13229;DHT22;6680;53.220;10.402;2022-12-07T01:30:00;4.00;99.90
13229;DHT22;6680;53.220;10.402;2022-12-07T01:32:27;4.00;99.90
13229;DHT22;6680;53.220;10.402;2022-12-07T01:34:55;3.90;99.90
13229;DHT22;6680;53.220;10.402;2022-12-07T01:37:22;3.90;99.90
13229;DHT22;6680;53.220;10.402;2022-12-07T01:39:50;3.90;99.90
13229;DHT22;6680;53.220;10.402;2022-12-07T01:42:18;4.00;99.90
13229;DHT22;6680;53.220;10.402;2022-12-07T01:47:50;4.00;99.90
13229;DHT22;6680;53.220;10.402;2022-12-07T01:50:19;4.00;99.90
13229;DHT22;6680;53.220;10.402;2022-12-07T01:52:49;4.00;99.90
13229;DHT22;6680;53.220;10.402;2022-12-07T01:55:18;4.00;99.90
13229;DHT22;6680;53.220;10.402;2022-12-07T01:57:48;4.10;99.90
13229;DHT22;6680;53.220;10.402;2022-12-07T02:00:17;4.10;99.90
13229;DHT22;6680;53.220;10.402;2022-12-07T02:02:47;4.10;99.90
13229;DHT22;6680;53.220;10.402;2022-12-07T02:05:15;4.10;99.90
13229;DHT22;6680;53.220;10.402;2022-12-07T02:07:43;4.20;99.90
13229;DHT22;6680;53.220;10.402;2022-12-07T02:10:14;4.20;99.90
13229;DHT22;6680;53.220;10.402;2022-12-07T02:12:42;4.20;99.90
13229;DHT22;6680;53.220;10.402;2022-12-07T02:15:11;4.30;99.90
13229;DHT22;6680;53.220;10.402;2022-12-07T02:17:43;4.20;99.90
13229;DHT22;6680;53.220;10.402;2022-12-07T02:20:28;4.30;99.90
13229;DHT22;6680;53.220;10.402;2022-12-07T02:26:23;4.20;99.90
13229;DHT22;6680;53.220;10.402;2022-12-07T02:29:17;4.30;99.90
13229;DHT22;6680;53.220;10.402;2022-12-07T02:31:53;4.30;99.90
13229;DHT22;6680;53.220;10.402;2022-12-07T02:34:27;4.30;99.90
13229;DHT22;6680;53.220;10.402;2022-12-07T02:37:03;4.30;99.90
13229;DHT22;6680;53.220;10.402;2022-12-07T02:39:37;4.20;99.90
13229;DHT22;6680;53.220;10.402;2022-12-07T02:42:12;4.20;99.90
13229;DHT22;6680;53.220;10.402;2022-12-07T02:44:42;4.10;99.90
13229;DHT22;6680;53.220;10.402;2022-12-07T02:47:12;4.10;99.90
13229;DHT22;6680;53.220;10.402;2022-12-07T02:49:40;4.20;99.90
13229;DHT22;6680;53.220;10.402;2022-12-07T02:52:07;4.20;99.90
13229;DHT22;6680;53.220;10.402;2022-12-07T02:54:33;4.20;99.90
13229;DHT22;6680;53.220;10.402;2022-12-07T02:57:12;4.20;99.90
13229;DHT22;6680;53.220;10.402;2022-12-07T02:59:52;4.20;99.90
13229;DHT22;6680;53.220;10.402;2022-12-07T03:02:31;4.20;99.90
13229;DHT22;6680;53.220;10.402;2022-12-07T03:05:12;4.10;99.90
13229;DHT22;6680;53.220;10.402;2022-12-07T03:07:47;4.10;99.90
13229;DHT22;6680;53.220;10.402;2022-12-07T03:10:21;4.00;99.90
13229;DHT22;6680;53.220;10.402;2022-12-07T03:12:55;4.00;99.90
13229;DHT22;6680;53.220;10.402;2022-12-07T03:15:29;3.90;99.90
13229;DHT22;6680;53.220;10.402;2022-12-07T03:17:56;3.70;99.90
13229;DHT22;6680;53.220;10.402;2022-12-07T03:20:27;3.90;99.90
13229;DHT22;6680;53.220;10.402;2022-12-07T03:22:54;3.90;99.90
13229;DHT22;6680;53.220;10.402;2022-12-07T03:25:21;3.80;99.90
13229;DHT22;6680;53.220;10.402;2022-12-07T03:27:52;3.70;99.90
13229;DHT22;6680;53.220;10.402;2022-12-07T03:30:26;3.60;99.90
13229;DHT22;6680;53.220;10.402;2022-12-07T03:32:59;3.60;99.90
13229;DHT22;6680;53.220;10.402;2022-12-07T03:35:30;3.50;99.90
13229;DHT22;6680;53.220;10.402;2022-12-07T03:38:00;3.10;99.90
13229;DHT22;6680;53.220;10.402;2022-12-07T03:40:32;3.60;99.90
13229;DHT22;6680;53.220;10.402;2022-12-07T03:43:01;3.30;99.90
13229;DHT22;6680;53.220;10.402;2022-12-07T03:45:34;3.30;99.90
13229;DHT22;6680;53.220;10.402;2022-12-07T03:48:07;3.20;99.90
13229;DHT22;6680;53.220;10.402;2022-12-07T03:50:40;3.40;99.90
13229;DHT22;6680;53.220;10.402;2022-12-07T03:53:13;3.40;99.90
13229;DHT22;6680;53.220;10.402;2022-12-07T03:55:43;3.50;99.90
13229;DHT22;6680;53.220;10.402;2022-12-07T03:58:12;3.40;99.90
13229;DHT22;6680;53.220;10.402;2022-12-07T04:00:42;3.40;99.90
13229;DHT22;6680;53.220;10.402;2022-12-07T04:03:10;3.40;99.90
13229;DHT22;6680;53.220;10.402;2022-12-07T04:05:37;3.40;99.90
13229;DHT22;6680;53.220;10.402;2022-12-07T04:08:04;3.30;99.90
13229;DHT22;6680;53.220;10.402;2022-12-07T04:10:31;3.30;99.90
13229;DHT22;6680;53.220;10.402;2022-12-07T04:12:57;3.20;99.90
13229;DHT22;6680;53.220;10.402;2022-12-07T04:15:24;3.20;99.90
13229;DHT22;6680;53.220;10.402;2022-12-07T04:17:53;3.00;99.90
13229;DHT22;6680;53.220;10.402;2022-12-07T04:20:20;3.00;99.90
13229;DHT22;6680;53.220;10.402;2022-12-07T04:22:47;2.90;99.90
13229;DHT22;6680;53.220;10.402;2022-12-07T04:25:13;2.90;99.90
13229;DHT22;6680;53.220;10.402;2022-12-07T04:27:40;3.00;99.90
13229;DHT22;6680;53.220;10.402;2022-12-07T04:30:08;3.10;99.90
13229;DHT22;6680;53.220;10.402;2022-12-07T04:32:35;3.10;99.90
13229;DHT22;6680;53.220;10.402;2022-12-07T04:35:04;3.10;99.90
13229;DHT22;6680;53.220;10.402;2022-12-07T04:37:31;3.10;99.90
13229;DHT22;6680;53.220;10.402;2022-12-07T04:39:58;3.00;99.90
13229;DHT22;6680;53.220;10.402;2022-12-07T04:42:25;3.00;99.90
13229;DHT22;6680;53.220;10.402;2022-12-07T04:44:52;2.90;99.90
13229;DHT22;6680;53.220;10.402;2022-12-07T04:47:18;2.90;99.90
13229;DHT22;6680;53.220;10.402;2022-12-07T04:52:14;2.70;99.90
13229;DHT22;6680;53.220;10.402;2022-12-07T04:54:40;2.70;99.90
13229;DHT22;6680;53.220;10.402;2022-12-07T04:57:07;2.60;99.90
13229;DHT22;6680;53.220;10.402;2022-12-07T04:59:34;2.50;99.90
13229;DHT22;6680;53.220;10.402;2022-12-07T05:02:00;2.40;99.90
13229;DHT22;6680;53.220;10.402;2022-12-07T05:04:27;2.40;99.90
13229;DHT22;6680;53.220;10.402;2022-12-07T05:06:54;2.40;99.90
13229;DHT22;6680;53.220;10.402;2022-12-07T05:09:22;2.30;99.90
13229;DHT22;6680;53.220;10.402;2022-12-07T05:11:49;2.30;99.90
13229;DHT22;6680;53.220;10.402;2022-12-07T05:14:17;2.30;99.90
13229;DHT22;6680;53.220;10.402;2022-12-07T05:16:47;2.20;99.90
13229;DHT22;6680;53.220;10.402;2022-12-07T05:19:15;2.20;99.90
13229;DHT22;6680;53.220;10.402;2022-12-07T05:21:42;2.10;99.90
13229;DHT22;6680;53.220;10.402;2022-12-07T05:24:11;2.10;99.90
13229;DHT22;6680;53.220;10.402;2022-12-07T05:26:40;2.10;99.90
13229;DHT22;6680;53.220;10.402;2022-12-07T05:29:07;2.10;99.90
13229;DHT22;6680;53.220;10.402;2022-12-07T05:31:34;2.00;99.90
13229;DHT22;6680;53.220;10.402;2022-12-07T05:34:01;2.10;99.90
13229;DHT22;6680;53.220;10.402;2022-12-07T05:36:28;2.00;99.90
13229;DHT22;6680;53.220;10.402;2022-12-07T05:38:56;2.00;99.90
13229;DHT22;6680;53.220;10.402;2022-12-07T05:41:23;2.00;99.90
13229;DHT22;6680;53.220;10.402;2022-12-07T05:44:09;2.10;99.90
13229;DHT22;6680;53.220;10.402;2022-12-07T05:46:36;2.00;99.90
13229;DHT22;6680;53.220;10.402;2022-12-07T05:51:30;1.90;99.90
13229;DHT22;6680;53.220;10.402;2022-12-07T05:53:57;1.90;99.90
13229;DHT22;6680;53.220;10.402;2022-12-07T05:56:23;1.90;99.90
13229;DHT22;6680;53.220;10.402;2022-12-07T05:58:51;1.90;99.90
13229;DHT22;6680;53.220;10.402;2022-12-07T06:01:37;1.90;99.90
13229;DHT22;6680;53.220;10.402;2022-12-07T06:04:04;1.90;99.90
13229;DHT22;6680;53.220;10.402;2022-12-07T06:06:30;1.90;99.90
13229;DHT22;6680;53.220;10.402;2022-12-07T06:08:57;1.90;99.90
13229;DHT22;6680;53.220;10.402;2022-12-07T06:11:24;1.90;99.90
13229;DHT22;6680;53.220;10.402;2022-12-07T06:14:08;1.80;99.90
13229;DHT22;6680;53.220;10.402;2022-12-07T06:16:36;1.80;99.90
13229;DHT22;6680;53.220;10.402;2022-12-07T06:19:03;1.80;99.90
13229;DHT22;6680;53.220;10.402;2022-12-07T06:21:29;1.80;99.90
13229;DHT22;6680;53.220;10.402;2022-12-07T06:23:56;1.70;99.90
13229;DHT22;6680;53.220;10.402;2022-12-07T06:26:23;1.70;99.90
13229;DHT22;6680;53.220;10.402;2022-12-07T06:31:17;1.60;99.90
13229;DHT22;6680;53.220;10.402;2022-12-07T06:33:45;1.60;99.90
13229;DHT22;6680;53.220;10.402;2022-12-07T06:36:12;1.50;99.90
13229;DHT22;6680;53.220;10.402;2022-12-07T06:38:39;1.60;99.90
13229;DHT22;6680;53.220;10.402;2022-12-07T06:41:06;1.60;99.90
13229;DHT22;6680;53.220;10.402;2022-12-07T06:43:33;1.60;99.90
13229;DHT22;6680;53.220;10.402;2022-12-07T06:45:59;1.60;99.90
13229;DHT22;6680;53.220;10.402;2022-12-07T06:48:26;1.60;99.90
13229;DHT22;6680;53.220;10.402;2022-12-07T06:50:54;1.60;99.90
13229;DHT22;6680;53.220;10.402;2022-12-07T06:53:21;1.60;99.90
13229;DHT22;6680;53.220;10.402;2022-12-07T06:55:47;1.60;99.90
13229;DHT22;6680;53.220;10.402;2022-12-07T06:58:14;1.60;99.90
13229;DHT22;6680;53.220;10.402;2022-12-07T07:00:41;1.50;99.90
13229;DHT22;6680;53.220;10.402;2022-12-07T07:03:08;1.50;99.90
13229;DHT22;6680;53.220;10.402;2022-12-07T07:05:35;1.50;99.90
13229;DHT22;6680;53.220;10.402;2022-12-07T07:08:03;1.60;99.90
13229;DHT22;6680;53.220;10.402;2022-12-07T07:10:30;1.50;99.90
13229;DHT22;6680;53.220;10.402;2022-12-07T07:12:57;1.60;99.90
13229;DHT22;6680;53.220;10.402;2022-12-07T07:15:24;1.60;99.90
13229;DHT22;6680;53.220;10.402;2022-12-07T07:17:51;1.60;99.90
13229;DHT22;6680;53.220;10.402;2022-12-07T07:20:18;1.60;99.90
13229;DHT22;6680;53.220;10.402;2022-12-07T07:22:44;1.70;99.90
13229;DHT22;6680;53.220;10.402;2022-12-07T07:25:12;1.70;99.90
13229;DHT22;6680;53.220;10.402;2022-12-07T07:27:39;1.70;99.90
13229;DHT22;6680;53.220;10.402;2022-12-07T07:30:07;1.70;99.90
13229;DHT22;6680;53.220;10.402;2022-12-07T07:32:34;1.80;99.90
13229;DHT22;6680;53.220;10.402;2022-12-07T07:35:01;1.80;99.90
13229;DHT22;6680;53.220;10.402;2022-12-07T07:37:28;1.80;99.90
13229;DHT22;6680;53.220;10.402;2022-12-07T07:39:54;1.80;99.90
13229;DHT22;6680;53.220;10.402;2022-12-07T07:42:22;1.90;99.90
13229;DHT22;6680;53.220;10.402;2022-12-07T07:44:49;1.90;99.90
13229;DHT22;6680;53.220;10.402;2022-12-07T07:47:16;2.00;99.90
13229;DHT22;6680;53.220;10.402;2022-12-07T07:49:43;2.00;99.90
13229;DHT22;6680;53.220;10.402;2022-12-07T07:52:10;2.00;99.90
13229;DHT22;6680;53.220;10.402;2022-12-07T07:54:36;2.00;99.90
13229;DHT22;6680;53.220;10.402;2022-12-07T07:57:03;2.00;99.90
13229;DHT22;6680;53.220;10.402;2022-12-07T07:59:31;2.10;99.90
13229;DHT22;6680;53.220;10.402;2022-12-07T08:01:58;2.10;99.90
13229;DHT22;6680;53.220;10.402;2022-12-07T08:04:25;2.20;99.90
13229;DHT22;6680;53.220;10.402;2022-12-07T08:06:51;2.20;99.90
13229;DHT22;6680;53.220;10.402;2022-12-07T08:09:18;2.30;99.90
13229;DHT22;6680;53.220;10.402;2022-12-07T08:11:45;2.40;99.90
13229;DHT22;6680;53.220;10.402;2022-12-07T08:14:12;2.40;99.90
13229;DHT22;6680;53.220;10.402;2022-12-07T08:16:40;2.50;99.90
13229;DHT22;6680;53.220;10.402;2022-12-07T08:19:06;2.50;99.90
13229;DHT22;6680;53.220;10.402;2022-12-07T08:21:33;2.50;99.90
13229;DHT22;6680;53.220;10.402;2022-12-07T08:24:00;2.30;99.90
13229;DHT22;6680;53.220;10.402;2022-12-07T08:26:27;2.60;99.90
13229;DHT22;6680;53.220;10.402;2022-12-07T08:28:54;2.60;99.90
13229;DHT22;6680;53.220;10.402;2022-12-07T08:31:21;2.60;99.90
13229;DHT22;6680;53.220;10.402;2022-12-07T08:33:49;2.60;99.90
13229;DHT22;6680;53.220;10.402;2022-12-07T08:36:17;2.60;99.90
13229;DHT22;6680;53.220;10.402;2022-12-07T08:38:43;2.70;99.90
13229;DHT22;6680;53.220;10.402;2022-12-07T08:41:10;2.70;99.90
13229;DHT22;6680;53.220;10.402;2022-12-07T08:43:37;2.70;99.90
13229;DHT22;6680;53.220;10.402;2022-12-07T08:46:07;2.70;99.90
13229;DHT22;6680;53.220;10.402;2022-12-07T08:48:37;2.70;99.90
13229;DHT22;6680;53.220;10.402;2022-12-07T08:51:06;2.80;99.90
13229;DHT22;6680;53.220;10.402;2022-12-07T08:53:33;2.90;99.90
13229;DHT22;6680;53.220;10.402;2022-12-07T08:56:01;2.90;99.90
13229;DHT22;6680;53.220;10.402;2022-12-07T09:00:55;2.90;99.90
13229;DHT22;6680;53.220;10.402;2022-12-07T09:03:21;3.00;99.90
13229;DHT22;6680;53.220;10.402;2022-12-07T09:05:48;3.00;99.90
13229;DHT22;6680;53.220;10.402;2022-12-07T09:08:16;3.10;99.90
13229;DHT22;6680;53.220;10.402;2022-12-07T09:10:43;3.10;99.90
13229;DHT22;6680;53.220;10.402;2022-12-07T09:13:10;3.10;99.90
13229;DHT22;6680;53.220;10.402;2022-12-07T09:15:36;3.20;99.90
13229;DHT22;6680;53.220;10.402;2022-12-07T09:18:03;3.30;99.90
13229;DHT22;6680;53.220;10.402;2022-12-07T09:20:30;3.30;99.90
13229;DHT22;6680;53.220;10.402;2022-12-07T09:22:57;3.40;99.90
13229;DHT22;6680;53.220;10.402;2022-12-07T09:25:25;3.50;99.90
13229;DHT22;6680;53.220;10.402;2022-12-07T09:27:55;3.50;99.90
13229;DHT22;6680;53.220;10.402;2022-12-07T09:30:22;3.50;99.90
13229;DHT22;6680;53.220;10.402;2022-12-07T09:32:49;3.60;99.90
13229;DHT22;6680;53.220;10.402;2022-12-07T09:35:16;3.70;99.90
13229;DHT22;6680;53.220;10.402;2022-12-07T09:37:43;3.70;99.90
13229;DHT22;6680;53.220;10.402;2022-12-07T09:40:10;3.70;99.90
13229;DHT22;6680;53.220;10.402;2022-12-07T09:42:41;3.70;99.90
13229;DHT22;6680;53.220;10.402;2022-12-07T09:45:13;3.80;99.90
13229;DHT22;6680;53.220;10.402;2022-12-07T09:47:41;3.80;99.90
13229;DHT22;6680;53.220;10.402;2022-12-07T09:50:14;3.80;99.90
13229;DHT22;6680;53.220;10.402;2022-12-07T09:52:42;3.90;99.90
13229;DHT22;6680;53.220;10.402;2022-12-07T09:55:12;3.90;99.90
13229;DHT22;6680;53.220;10.402;2022-12-07T09:57:42;3.80;99.90
13229;DHT22;6680;53.220;10.402;2022-12-07T10:00:13;3.80;99.90
13229;DHT22;6680;53.220;10.402;2022-12-07T10:02:43;3.90;99.90
13229;DHT22;6680;53.220;10.402;2022-12-07T10:05:14;3.80;99.90
13229;DHT22;6680;53.220;10.402;2022-12-07T10:07:41;3.90;99.90
13229;DHT22;6680;53.220;10.402;2022-12-07T10:10:14;3.90;99.90
13229;DHT22;6680;53.220;10.402;2022-12-07T10:12:58;3.90;99.90
13229;DHT22;6680;53.220;10.402;2022-12-07T10:15:41;4.10;99.90
13229;DHT22;6680;53.220;10.402;2022-12-07T10:18:28;4.20;99.90
13229;DHT22;6680;53.220;10.402;2022-12-07T10:21:16;4.20;99.90
13229;DHT22;6680;53.220;10.402;2022-12-07T10:24:00;4.30;99.90
13229;DHT22;6680;53.220;10.402;2022-12-07T10:26:30;4.40;99.90
13229;DHT22;6680;53.220;10.402;2022-12-07T10:29:01;4.50;99.90
13229;DHT22;6680;53.220;10.402;2022-12-07T10:31:28;4.40;99.90
13229;DHT22;6680;53.220;10.402;2022-12-07T10:33:57;4.40;99.90
13229;DHT22;6680;53.220;10.402;2022-12-07T10:36:26;4.50;99.90
13229;DHT22;6680;53.220;10.402;2022-12-07T10:39:00;4.50;99.90
13229;DHT22;6680;53.220;10.402;2022-12-07T10:41:28;4.50;99.90
13229;DHT22;6680;53.220;10.402;2022-12-07T10:43:57;4.60;99.90
13229;DHT22;6680;53.220;10.402;2022-12-07T10:49:42;4.70;99.90
13229;DHT22;6680;53.220;10.402;2022-12-07T10:52:20;4.70;99.90
13229;DHT22;6680;53.220;10.402;2022-12-07T10:55:04;4.70;99.90
13229;DHT22;6680;53.220;10.402;2022-12-07T10:57:43;4.70;99.90
13229;DHT22;6680;53.220;10.402;2022-12-07T11:00:18;4.60;99.90
13229;DHT22;6680;53.220;10.402;2022-12-07T11:05:52;4.90;99.90
13229;DHT22;6680;53.220;10.402;2022-12-07T11:08:31;4.90;99.90
13229;DHT22;6680;53.220;10.402;2022-12-07T11:11:06;4.90;99.90
13229;DHT22;6680;53.220;10.402;2022-12-07T11:13:40;4.90;99.90
13229;DHT22;6680;53.220;10.402;2022-12-07T11:16:21;4.90;99.90
13229;DHT22;6680;53.220;10.402;2022-12-07T11:18:59;4.90;99.90
13229;DHT22;6680;53.220;10.402;2022-12-07T11:21:35;4.90;99.90
13229;DHT22;6680;53.220;10.402;2022-12-07T11:24:11;4.90;99.90
13229;DHT22;6680;53.220;10.402;2022-12-07T11:26:55;4.70;99.90
13229;DHT22;6680;53.220;10.402;2022-12-07T11:29:43;4.70;99.90
13229;DHT22;6680;53.220;10.402;2022-12-07T11:32:19;4.60;99.90
13229;DHT22;6680;53.220;10.402;2022-12-07T11:34:56;4.60;99.90
13229;DHT22;6680;53.220;10.402;2022-12-07T11:37:30;4.60;99.90
13229;DHT22;6680;53.220;10.402;2022-12-07T11:40:02;4.60;99.90
13229;DHT22;6680;53.220;10.402;2022-12-07T11:42:31;4.50;99.90
13229;DHT22;6680;53.220;10.402;2022-12-07T11:45:03;4.50;99.90
13229;DHT22;6680;53.220;10.402;2022-12-07T11:47:40;4.50;99.90
13229;DHT22;6680;53.220;10.402;2022-12-07T11:50:23;4.60;99.90
13229;DHT22;6680;53.220;10.402;2022-12-07T11:52:54;4.60;99.90
13229;DHT22;6680;53.220;10.402;2022-12-07T11:55:27;4.70;99.90
13229;DHT22;6680;53.220;10.402;2022-12-07T11:58:01;4.70;99.90
13229;DHT22;6680;53.220;10.402;2022-12-07T12:00:29;4.70;99.90
13229;DHT22;6680;53.220;10.402;2022-12-07T12:02:59;4.60;99.90
13229;DHT22;6680;53.220;10.402;2022-12-07T12:05:29;4.60;99.90
13229;DHT22;6680;53.220;10.402;2022-12-07T12:08:03;4.50;99.90
13229;DHT22;6680;53.220;10.402;2022-12-07T12:10:38;4.70;99.90
13229;DHT22;6680;53.220;10.402;2022-12-07T12:16:15;4.60;99.90
13229;DHT22;6680;53.220;10.402;2022-12-07T12:18:53;4.60;99.90
13229;DHT22;6680;53.220;10.402;2022-12-07T12:21:27;4.50;99.90
13229;DHT22;6680;53.220;10.402;2022-12-07T12:23:57;4.40;99.90
13229;DHT22;6680;53.220;10.402;2022-12-07T12:26:27;4.40;99.90
13229;DHT22;6680;53.220;10.402;2022-12-07T12:28:57;4.30;99.90
13229;DHT22;6680;53.220;10.402;2022-12-07T12:31:34;4.30;99.90
13229;DHT22;6680;53.220;10.402;2022-12-07T12:34:04;4.20;99.90
13229;DHT22;6680;53.220;10.402;2022-12-07T12:36:46;4.20;99.90
13229;DHT22;6680;53.220;10.402;2022-12-07T12:39:14;4.20;99.90
13229;DHT22;6680;53.220;10.402;2022-12-07T12:41:53;4.20;99.90
13229;DHT22;6680;53.220;10.402;2022-12-07T12:48:07;4.20;99.90
13229;DHT22;6680;53.220;10.402;2022-12-07T12:54:05;4.30;99.90
13229;DHT22;6680;53.220;10.402;2022-12-07T12:56:41;4.30;99.90
13229;DHT22;6680;53.220;10.402;2022-12-07T12:59:24;4.40;99.90
13229;DHT22;6680;53.220;10.402;2022-12-07T13:01:51;4.40;99.90
13229;DHT22;6680;53.220;10.402;2022-12-07T13:04:35;4.50;99.90
13229;DHT22;6680;53.220;10.402;2022-12-07T13:07:04;4.40;99.90
13229;DHT22;6680;53.220;10.402;2022-12-07T13:09:33;4.40;99.90
13229;DHT22;6680;53.220;10.402;2022-12-07T13:12:04;4.40;99.90
13229;DHT22;6680;53.220;10.402;2022-12-07T13:14:56;4.50;99.90
13229;DHT22;6680;53.220;10.402;2022-12-07T13:18:01;4.50;99.90
13229;DHT22;6680;53.220;10.402;2022-12-07T13:20:47;4.50;99.90
13229;DHT22;6680;53.220;10.402;2022-12-07T13:23:18;4.50;99.90
13229;DHT22;6680;53.220;10.402;2022-12-07T13:25:53;4.40;99.90
13229;DHT22;6680;53.220;10.402;2022-12-07T13:28:22;4.30;99.90
13229;DHT22;6680;53.220;10.402;2022-12-07T13:31:03;4.20;99.90
13229;DHT22;6680;53.220;10.402;2022-12-07T13:33:32;4.30;99.90
13229;DHT22;6680;53.220;10.402;2022-12-07T13:36:00;4.20;99.90
13229;DHT22;6680;53.220;10.402;2022-12-07T13:38:29;4.20;99.90
13229;DHT22;6680;53.220;10.402;2022-12-07T13:41:03;4.20;99.90
13229;DHT22;6680;53.220;10.402;2022-12-07T13:43:30;4.20;99.90
13229;DHT22;6680;53.220;10.402;2022-12-07T13:45:57;4.10;99.90
13229;DHT22;6680;53.220;10.402;2022-12-07T13:48:30;4.00;99.90
13229;DHT22;6680;53.220;10.402;2022-12-07T13:51:00;3.80;99.90
13229;DHT22;6680;53.220;10.402;2022-12-07T13:53:27;3.80;99.90
13229;DHT22;6680;53.220;10.402;2022-12-07T13:55:56;3.60;99.90
13229;DHT22;6680;53.220;10.402;2022-12-07T13:58:34;3.60;99.90
13229;DHT22;6680;53.220;10.402;2022-12-07T14:01:00;3.60;99.90
13229;DHT22;6680;53.220;10.402;2022-12-07T14:03:30;3.50;99.90
13229;DHT22;6680;53.220;10.402;2022-12-07T14:06:17;3.50;99.90
13229;DHT22;6680;53.220;10.402;2022-12-07T14:08:44;3.50;99.90
13229;DHT22;6680;53.220;10.402;2022-12-07T14:11:15;3.60;99.90
13229;DHT22;6680;53.220;10.402;2022-12-07T14:13:55;3.60;99.90
13229;DHT22;6680;53.220;10.402;2022-12-07T14:16:26;3.50;99.90
13229;DHT22;6680;53.220;10.402;2022-12-07T14:18:55;3.50;99.90
13229;DHT22;6680;53.220;10.402;2022-12-07T14:21:23;3.50;99.90
13229;DHT22;6680;53.220;10.402;2022-12-07T14:24:12;3.50;99.90
13229;DHT22;6680;53.220;10.402;2022-12-07T14:26:40;3.40;99.90
13229;DHT22;6680;53.220;10.402;2022-12-07T14:29:27;3.40;99.90
13229;DHT22;6680;53.220;10.402;2022-12-07T14:31:57;3.30;99.90
13229;DHT22;6680;53.220;10.402;2022-12-07T14:34:24;3.30;99.90
13229;DHT22;6680;53.220;10.402;2022-12-07T14:36:51;3.20;99.90
13229;DHT22;6680;53.220;10.402;2022-12-07T14:39:19;3.20;99.90
13229;DHT22;6680;53.220;10.402;2022-12-07T14:41:45;3.20;99.90
13229;DHT22;6680;53.220;10.402;2022-12-07T14:44:19;3.20;99.90
13229;DHT22;6680;53.220;10.402;2022-12-07T14:46:48;3.10;99.90
13229;DHT22;6680;53.220;10.402;2022-12-07T14:49:15;3.10;99.90
13229;DHT22;6680;53.220;10.402;2022-12-07T14:51:43;3.10;99.90
13229;DHT22;6680;53.220;10.402;2022-12-07T14:54:14;3.00;99.90
13229;DHT22;6680;53.220;10.402;2022-12-07T14:56:42;2.90;99.90
13229;DHT22;6680;53.220;10.402;2022-12-07T14:59:09;2.90;99.90
13229;DHT22;6680;53.220;10.402;2022-12-07T15:01:37;2.90;99.90
13229;DHT22;6680;53.220;10.402;2022-12-07T15:04:05;2.90;99.90
13229;DHT22;6680;53.220;10.402;2022-12-07T15:06:32;2.90;99.90
13229;DHT22;6680;53.220;10.402;2022-12-07T15:08:59;2.90;99.90
13229;DHT22;6680;53.220;10.402;2022-12-07T15:11:25;2.90;99.90
13229;DHT22;6680;53.220;10.402;2022-12-07T15:13:52;2.90;99.90
13229;DHT22;6680;53.220;10.402;2022-12-07T15:16:35;2.80;99.90
13229;DHT22;6680;53.220;10.402;2022-12-07T15:19:02;2.70;99.90
13229;DHT22;6680;53.220;10.402;2022-12-07T15:21:30;2.70;99.90
13229;DHT22;6680;53.220;10.402;2022-12-07T15:23:57;2.60;99.90
13229;DHT22;6680;53.220;10.402;2022-12-07T15:26:23;2.50;99.90
13229;DHT22;6680;53.220;10.402;2022-12-07T15:28:52;2.50;99.90
13229;DHT22;6680;53.220;10.402;2022-12-07T15:31:19;2.40;99.90
13229;DHT22;6680;53.220;10.402;2022-12-07T15:33:46;2.30;99.90
13229;DHT22;6680;53.220;10.402;2022-12-07T15:36:18;2.30;99.90
13229;DHT22;6680;53.220;10.402;2022-12-07T15:38:47;2.20;99.90
13229;DHT22;6680;53.220;10.402;2022-12-07T15:41:14;2.20;99.90
13229;DHT22;6680;53.220;10.402;2022-12-07T15:43:40;2.10;99.90
13229;DHT22;6680;53.220;10.402;2022-12-07T15:46:29;2.10;99.90
13229;DHT22;6680;53.220;10.402;2022-12-07T15:48:57;2.10;99.90
13229;DHT22;6680;53.220;10.402;2022-12-07T15:51:24;2.10;99.90
13229;DHT22;6680;53.220;10.402;2022-12-07T15:53:52;2.00;99.90
13229;DHT22;6680;53.220;10.402;2022-12-07T15:56:19;2.00;99.90
13229;DHT22;6680;53.220;10.402;2022-12-07T15:58:45;2.00;99.90
13229;DHT22;6680;53.220;10.402;2022-12-07T16:01:13;2.10;99.90
13229;DHT22;6680;53.220;10.402;2022-12-07T16:06:07;2.10;99.90
13229;DHT22;6680;53.220;10.402;2022-12-07T16:08:34;2.10;99.90
13229;DHT22;6680;53.220;10.402;2022-12-07T16:11:06;2.20;99.90
13229;DHT22;6680;53.220;10.402;2022-12-07T16:13:33;2.20;99.90
13229;DHT22;6680;53.220;10.402;2022-12-07T16:16:03;2.20;99.90
13229;DHT22;6680;53.220;10.402;2022-12-07T16:18:30;2.20;99.90
13229;DHT22;6680;53.220;10.402;2022-12-07T16:20:56;2.10;99.90
13229;DHT22;6680;53.220;10.402;2022-12-07T16:23:23;2.10;99.90
13229;DHT22;6680;53.220;10.402;2022-12-07T16:25:50;2.00;99.90
13229;DHT22;6680;53.220;10.402;2022-12-07T16:28:18;1.90;99.90
13229;DHT22;6680;53.220;10.402;2022-12-07T16:30:45;1.90;99.90
13229;DHT22;6680;53.220;10.402;2022-12-07T16:33:12;1.80;99.90
13229;DHT22;6680;53.220;10.402;2022-12-07T16:35:38;1.70;99.90
13229;DHT22;6680;53.220;10.402;2022-12-07T16:38:07;1.40;99.90
13229;DHT22;6680;53.220;10.402;2022-12-07T16:40:34;1.60;99.90